Time;durP1;ratioP1;P1;durP2;ratioP2;P2;SDS_P1;SDS_P2;PMS_P1;PMS_P2;Temp;Humidity;BMP_temperature;BMP_pressure;BME280_temperature;BME280_humidity;BME280_pressure;Samples;Min_cycle;Max_cycle;Signal;HPM_P1;HPM_P2
2021/05/25 00:02:19;;;;;;;5.90;2.88;;;;;;;11.96;67.50;100723.91;5094122;28;20105;-52
2021/05/25 00:04:46;;;;;;;4.85;2.15;;;;;;;11.96;66.91;100729.38;5093410;28;20036;-55
2021/05/25 00:07:14;;;;;;;4.85;2.63;;;;;;;11.94;67.22;100730.44;5092494;28;20047;-53
2021/05/25 00:09:42;;;;;;;5.32;2.80;;;;;;;11.90;67.18;100725.81;5093228;28;20410;-54
2021/05/25 00:12:17;;;;;;;5.03;2.50;;;;;;;11.91;66.71;100722.81;5092935;28;20036;-53
2021/05/25 00:14:44;;;;;;;3.85;2.35;;;;;;;11.90;66.70;100726.63;5092189;28;20076;-54
2021/05/25 00:17:12;;;;;;;4.50;2.50;;;;;;;11.87;66.37;100734.59;5092563;28;20044;-54
2021/05/25 00:19:40;;;;;;;4.07;2.20;;;;;;;11.84;66.54;100727.75;5092915;28;20040;-53
2021/05/25 00:22:07;;;;;;;3.05;2.22;;;;;;;11.81;66.68;100732.91;5092614;28;20097;-53
2021/05/25 00:24:36;;;;;;;5.05;2.47;;;;;;;11.79;66.36;100738.69;5092992;28;20071;-53
2021/05/25 00:27:07;;;;;;;5.72;2.50;;;;;;;11.79;66.78;100735.13;5092135;28;20075;-53
2021/05/25 00:29:35;;;;;;;3.22;2.08;;;;;;;11.75;65.89;100740.31;5092143;28;20047;-52
2021/05/25 00:32:03;;;;;;;5.38;2.45;;;;;;;11.78;66.69;100741.69;5084645;28;20052;-52
2021/05/25 00:34:30;;;;;;;2.88;1.95;;;;;;;11.78;65.56;100745.22;5092048;28;20032;-53
2021/05/25 00:36:58;;;;;;;3.78;1.70;;;;;;;11.78;65.36;100745.22;5092294;28;20040;-52
2021/05/25 00:39:26;;;;;;;3.50;2.20;;;;;;;11.74;65.02;100749.63;5092419;28;20047;-51
2021/05/25 00:41:54;;;;;;;2.83;1.65;;;;;;;11.71;65.80;100739.22;5092165;28;20079;-53
2021/05/25 00:44:21;;;;;;;4.72;2.00;;;;;;;11.66;65.87;100740.06;5092136;28;20040;-52
2021/05/25 00:46:50;;;;;;;2.80;1.63;;;;;;;11.64;65.84;100747.75;5090996;28;20461;-53
2021/05/25 00:49:18;;;;;;;2.53;1.73;;;;;;;11.66;65.39;100747.44;5092232;28;20082;-52
2021/05/25 00:51:46;;;;;;;3.33;1.88;;;;;;;11.66;65.87;100747.44;5092538;28;20040;-54
2021/05/25 00:54:14;;;;;;;2.63;1.50;;;;;;;11.63;65.44;100748.00;5092177;28;20549;-53
2021/05/25 00:56:42;;;;;;;3.53;2.20;;;;;;;11.63;65.26;100757.00;5091950;28;20544;-52
2021/05/25 00:59:09;;;;;;;4.22;2.05;;;;;;;11.60;64.71;100754.03;5091966;28;20494;-53
2021/05/25 01:01:38;;;;;;;4.00;2.28;;;;;;;11.58;64.93;100750.75;5092402;28;20090;-51
2021/05/25 01:04:06;;;;;;;3.30;1.90;;;;;;;11.57;65.58;100760.84;5092434;28;20044;-53
2021/05/25 01:06:34;;;;;;;3.45;2.10;;;;;;;11.56;65.13;100752.94;5091587;28;20055;-54
2021/05/25 01:09:02;;;;;;;4.65;2.22;;;;;;;11.55;65.34;100756.75;5092020;28;20040;-51
2021/05/25 01:11:35;;;;;;;5.35;2.45;;;;;;;11.51;65.28;100760.03;5091644;28;20547;-53
2021/05/25 01:14:03;;;;;;;4.15;2.40;;;;;;;11.48;64.82;100746.94;5092367;28;20425;-53
2021/05/25 01:16:39;;;;;;;;;;;;;;;11.47;65.85;100748.03;5092734;28;20047;-50
2021/05/25 01:19:06;;;;;;;4.30;2.13;;;;;;;11.42;64.99;100753.50;5096026;28;19923;-49
2021/05/25 01:21:37;;;;;;;3.53;2.42;;;;;;;11.42;64.89;100753.50;5095756;28;20097;-52
2021/05/25 01:24:05;;;;;;;6.65;2.67;;;;;;;11.38;64.98;100746.97;5095860;28;20460;-53
2021/05/25 01:26:33;;;;;;;3.35;2.05;;;;;;;11.40;64.58;100749.41;5095492;28;20052;-51
2021/05/25 01:29:01;;;;;;;5.10;2.28;;;;;;;11.40;65.14;100754.84;5096075;28;20039;-52
2021/05/25 01:31:29;;;;;;;5.13;2.22;;;;;;;11.38;64.98;100760.59;5095799;28;20093;-53
2021/05/25 01:33:57;;;;;;;4.85;2.50;;;;;;;11.37;64.53;100761.69;5094509;28;20059;-53
2021/05/25 01:36:24;;;;;;;6.28;2.50;;;;;;;11.36;64.57;100761.97;5095700;28;20044;-51
2021/05/25 01:38:53;;;;;;;4.25;2.20;;;;;;;11.37;65.17;100755.41;5095258;28;20054;-53
2021/05/25 01:41:20;;;;;;;3.45;2.22;;;;;;;11.37;64.99;100760.88;5095198;28;20097;-51
2021/05/25 01:43:59;;;;;;;4.25;2.30;;;;;;;11.37;64.63;100761.69;5095650;28;20115;-50
2021/05/25 01:46:26;;;;;;;5.22;2.33;;;;;;;11.39;64.84;100759.50;5095637;28;20047;-52
2021/05/25 01:48:54;;;;;;;3.20;1.88;;;;;;;11.39;64.15;100755.97;5095563;28;20051;-54
2021/05/25 01:51:22;;;;;;;4.05;2.30;;;;;;;11.38;64.67;100763.34;5095260;28;20403;-54
2021/05/25 01:53:49;;;;;;;3.38;2.25;;;;;;;11.34;64.50;100756.78;5095414;28;20444;-52
2021/05/25 01:56:17;;;;;;;3.53;2.15;;;;;;;11.32;64.53;100767.16;5095060;28;20047;-53
2021/05/25 01:58:45;;;;;;;4.68;2.40;;;;;;;11.27;64.74;100762.50;5095417;28;20101;-54
2021/05/25 02:01:13;;;;;;;3.65;1.95;;;;;;;11.23;64.59;100768.78;5095175;28;20036;-54
2021/05/25 02:03:41;;;;;;;3.90;2.38;;;;;;;11.22;64.78;100770.69;5095074;28;20183;-54
2021/05/25 02:06:11;;;;;;;4.40;2.40;;;;;;;11.16;64.58;100770.97;5094692;28;20437;-55
2021/05/25 02:08:39;;;;;;;3.90;2.10;;;;;;;11.14;64.70;100767.72;5094993;28;20055;-55
2021/05/25 02:11:08;;;;;;;5.35;2.15;;;;;;;11.16;65.07;100770.97;5094496;28;20044;-54
2021/05/25 02:13:38;;;;;;;3.92;2.33;;;;;;;11.18;64.58;100774.25;5095079;28;20055;-50
2021/05/25 02:16:08;;;;;;;5.50;2.30;;;;;;;11.15;64.49;100780.25;5095179;28;20109;-48
2021/05/25 02:18:41;;;;;;;5.15;2.10;;;;;;;11.15;65.03;100774.81;5095003;28;20048;-53
2021/05/25 02:21:10;;;;;;;4.40;2.35;;;;;;;11.15;64.98;100775.63;5094714;28;20051;-49
2021/05/25 02:23:38;;;;;;;7.10;2.70;;;;;;;11.12;65.08;100781.63;5094782;28;20075;-51
2021/05/25 02:26:06;;;;;;;3.67;1.88;;;;;;;11.11;64.90;100779.97;5094781;28;20048;-52
2021/05/25 02:28:34;;;;;;;4.60;2.05;;;;;;;11.12;64.80;100780.81;5094520;28;20548;-51
2021/05/25 02:31:02;;;;;;;4.18;2.10;;;;;;;11.09;64.76;100777.53;5094624;28;20040;-51
2021/05/25 02:33:30;;;;;;;3.80;2.00;;;;;;;11.12;64.78;100783.53;5094592;28;20036;-55
2021/05/25 02:35:59;;;;;;;2.63;1.88;;;;;;;11.13;64.44;100779.69;5094504;28;20082;-48
2021/05/25 02:38:29;;;;;;;3.17;1.90;;;;;;;11.11;64.55;100779.16;5093800;28;20044;-49
2021/05/25 02:40:58;;;;;;;3.40;2.15;;;;;;;11.09;64.78;100788.44;5094118;28;20044;-49
2021/05/25 02:43:26;;;;;;;4.38;2.25;;;;;;;11.07;64.85;100785.16;5094512;28;20491;-49
2021/05/25 02:45:54;;;;;;;2.80;1.90;;;;;;;11.08;65.21;100786.78;5094473;28;20044;-49
2021/05/25 02:48:22;;;;;;;2.63;2.10;;;;;;;11.07;65.38;100779.72;5094467;28;20040;-49
2021/05/25 02:50:51;;;;;;;4.80;2.30;;;;;;;11.07;64.87;100784.34;5094244;28;20032;-49
2021/05/25 02:53:19;;;;;;;4.43;2.20;;;;;;;11.06;65.13;100785.41;5093961;28;20104;-49
2021/05/25 02:55:47;;;;;;;4.90;2.30;;;;;;;11.09;64.88;100791.16;5094079;28;20048;-49
2021/05/25 02:58:14;;;;;;;4.93;2.33;;;;;;;11.10;65.30;100789.25;5094486;28;20509;-48
2021/05/25 03:00:45;;;;;;;3.55;2.10;;;;;;;11.10;65.17;100789.25;5094132;28;20040;-51
2021/05/25 03:03:13;;;;;;;3.83;2.00;;;;;;;11.10;65.54;100778.34;5094074;28;20043;-52
2021/05/25 03:05:43;;;;;;;3.92;2.00;;;;;;;11.07;65.10;100782.44;5093615;28;20105;-50
2021/05/25 03:08:12;;;;;;;3.88;2.08;;;;;;;11.07;64.81;100785.16;5093610;28;20040;-52
2021/05/25 03:10:42;;;;;;;4.55;1.98;;;;;;;11.02;65.52;100787.06;5093853;28;20044;-53
2021/05/25 03:13:10;;;;;;;4.25;2.00;;;;;;;11.00;64.83;100787.34;5092621;28;20494;-53
2021/05/25 03:15:40;;;;;;;3.95;2.00;;;;;;;11.00;64.96;100789.25;5094114;28;20094;-53
2021/05/25 03:18:09;;;;;;;3.00;1.85;;;;;;;10.97;65.47;100782.44;5092596;28;20093;-53
2021/05/25 03:20:38;;;;;;;4.72;1.90;;;;;;;10.93;65.66;100794.16;5093776;28;20533;-53
2021/05/25 03:23:07;;;;;;;6.47;1.98;;;;;;;10.91;65.67;100788.97;5093278;28;20563;-51
2021/05/25 03:25:35;;;;;;;3.90;2.08;;;;;;;10.93;65.93;100794.97;5094156;28;20044;-51
2021/05/25 03:28:04;;;;;;;4.63;2.17;;;;;;;10.89;65.62;100793.84;5093287;28;20040;-52
2021/05/25 03:30:32;;;;;;;3.65;2.17;;;;;;;10.85;65.67;100795.50;5092330;28;20093;-50
2021/05/25 03:33:00;;;;;;;3.28;2.00;;;;;;;10.84;65.40;100802.03;5093200;28;20533;-52
2021/05/25 03:35:28;;;;;;;4.40;2.13;;;;;;;10.88;65.92;100797.69;5093435;28;20032;-53
2021/05/25 03:37:56;;;;;;;3.58;2.05;;;;;;;10.93;65.82;100803.16;5093235;28;20537;-51
2021/05/25 03:40:24;;;;;;;4.15;2.08;;;;;;;10.93;65.64;100805.06;5092466;28;20494;-50
2021/05/25 03:42:53;;;;;;;3.53;2.10;;;;;;;10.94;65.81;100804.75;5092973;28;20044;-52
2021/05/25 03:45:22;;;;;;;4.43;1.88;;;;;;;10.93;65.58;100805.06;5093180;28;20093;-56
2021/05/25 03:47:50;;;;;;;3.55;2.13;;;;;;;10.93;66.21;100816.78;5093158;28;20469;-53
2021/05/25 03:50:18;;;;;;;5.43;2.88;;;;;;;10.93;65.66;100814.03;5093179;28;20047;-53
2021/05/25 03:52:48;;;;;;;5.32;2.20;;;;;;;10.94;66.07;100817.59;5064957;28;20040;-51
2021/05/25 04:01:04;;;;;;;4.85;2.15;;;;;;;10.94;66.43;100810.22;5092759;28;20105;-53
2021/05/25 04:03:33;;;;;;;5.00;2.45;;;;;;;10.93;65.98;100811.31;5092832;28;20048;-53
2021/05/25 04:06:01;;;;;;;3.65;1.85;;;;;;;10.92;66.38;100815.16;5092336;28;20036;-52
2021/05/25 04:08:29;;;;;;;4.80;2.38;;;;;;;10.93;65.68;100810.50;5092995;28;20048;-52
2021/05/25 04:10:56;;;;;;;5.25;1.98;;;;;;;10.90;66.44;100809.13;5092527;28;20052;-52
2021/05/25 04:13:24;;;;;;;5.82;2.42;;;;;;;10.88;66.50;100814.84;5092883;28;20048;-53
2021/05/25 04:15:54;;;;;;;4.60;1.75;;;;;;;10.90;65.86;100811.88;5092612;28;20044;-51
2021/05/25 04:18:22;;;;;;;6.57;1.70;;;;;;;10.91;66.31;100812.69;5092609;28;20048;-53
2021/05/25 04:20:50;;;;;;;3.33;2.00;;;;;;;10.90;66.16;100811.88;5092136;28;20036;-52
2021/05/25 04:23:18;;;;;;;3.38;1.75;;;;;;;10.88;65.97;100811.31;5092738;28;20036;-52
2021/05/25 04:25:46;;;;;;;4.47;1.77;;;;;;;10.86;66.33;100814.31;5092754;28;20502;-50
2021/05/25 04:28:14;;;;;;;3.30;1.80;;;;;;;10.86;66.41;100817.03;5092342;28;20490;-51
2021/05/25 04:30:42;;;;;;;4.15;1.90;;;;;;;10.87;66.18;100812.38;5092875;28;20039;-54
2021/05/25 04:33:10;;;;;;;2.33;1.88;;;;;;;10.88;66.26;100822.22;5092031;28;20085;-53
2021/05/25 04:35:38;;;;;;;4.75;1.90;;;;;;;10.87;66.44;100824.13;5091846;28;20437;-52
2021/05/25 04:38:06;;;;;;;3.25;1.67;;;;;;;10.89;66.17;100821.13;5092463;28;20052;-54
2021/05/25 04:40:34;;;;;;;7.80;2.10;;;;;;;10.87;66.10;100817.84;5090758;28;20101;-51
2021/05/25 04:43:03;;;;;;;2.75;1.77;;;;;;;10.85;65.89;100820.84;5092420;28;20145;-51
2021/05/25 04:45:31;;;;;;;4.00;2.10;;;;;;;10.83;66.02;100833.13;5091933;28;20101;-51
2021/05/25 04:47:59;;;;;;;4.90;1.95;;;;;;;10.79;66.36;100830.09;5092251;28;20079;-51
2021/05/25 04:50:28;;;;;;;3.90;1.83;;;;;;;10.78;66.79;100836.66;5091753;28;20044;-50
2021/05/25 04:52:56;;;;;;;3.30;1.90;;;;;;;10.80;66.28;100834.47;5091895;28;20044;-52
2021/05/25 04:55:24;;;;;;;4.97;2.13;;;;;;;10.80;66.69;100841.81;5092233;28;20449;-50
2021/05/25 04:57:52;;;;;;;4.00;2.10;;;;;;;10.80;67.19;100841.81;5092208;28;20093;-49
2021/05/25 05:00:23;;;;;;;4.28;1.90;;;;;;;10.77;67.13;100845.06;5092304;28;20040;-48
2021/05/25 05:02:51;;;;;;;5.22;2.15;;;;;;;10.77;67.09;100845.06;5091995;28;20037;-52
2021/05/25 05:05:19;;;;;;;4.47;2.05;;;;;;;10.78;67.25;100853.00;5091890;28;20075;-51
2021/05/25 05:07:47;;;;;;;4.07;2.40;;;;;;;10.79;67.39;100848.34;5092124;28;20043;-53
2021/05/25 05:10:16;;;;;;;4.03;2.30;;;;;;;10.81;67.19;100851.63;5092020;28;20101;-54
2021/05/25 05:12:44;;;;;;;5.22;2.08;;;;;;;10.82;67.02;100856.00;5092134;28;20105;-51
2021/05/25 05:15:13;;;;;;;3.88;2.00;;;;;;;10.81;67.26;100851.63;5092101;28;20131;-54
2021/05/25 05:17:42;;;;;;;3.33;1.88;;;;;;;10.84;67.42;100846.47;5091392;28;20109;-50
2021/05/25 05:20:11;;;;;;;3.58;1.85;;;;;;;10.84;67.43;100851.09;5091806;28;20406;-53
2021/05/25 05:22:39;;;;;;;2.53;1.65;;;;;;;10.85;67.43;100850.84;5091985;28;20398;-54
2021/05/25 05:25:08;;;;;;;2.85;2.00;;;;;;;10.84;67.60;100856.53;5092087;28;20047;-53
2021/05/25 05:27:36;;;;;;;3.63;1.85;;;;;;;10.94;68.05;100853.03;5090661;28;20070;-50
2021/05/25 05:30:08;;;;;;;5.63;2.10;;;;;;;10.99;67.60;100853.88;5071839;28;20028;-56
2021/05/25 05:32:36;;;;;;;4.38;1.90;;;;;;;10.98;66.97;100854.94;5071309;28;20044;-53
2021/05/25 05:35:06;;;;;;;2.60;1.98;;;;;;;10.97;66.83;100861.50;5071497;28;20052;-54
2021/05/25 05:37:33;;;;;;;2.08;1.38;;;;;;;11.00;67.68;100860.94;5072056;28;20044;-52
2021/05/25 05:40:03;;;;;;;4.13;1.75;;;;;;;10.98;67.70;100863.13;5071213;28;20047;-54
2021/05/25 05:42:30;;;;;;;4.55;2.38;;;;;;;10.98;67.59;100859.59;5091046;28;20056;-55
2021/05/25 05:44:59;;;;;;;2.47;1.73;;;;;;;10.99;67.79;100870.22;5091862;28;20040;-55
2021/05/25 05:47:26;;;;;;;5.10;2.60;;;;;;;10.99;67.27;100870.22;5091467;28;20040;-53
2021/05/25 05:49:54;;;;;;;5.03;2.67;;;;;;;10.95;67.36;100871.84;5091560;28;20040;-53
2021/05/25 05:52:22;;;;;;;4.88;2.72;;;;;;;10.92;67.57;100880.56;5091554;28;20070;-55
2021/05/25 05:54:50;;;;;;;5.38;2.58;;;;;;;10.92;67.06;100872.41;5091998;28;20047;-53
2021/05/25 05:57:19;;;;;;;3.35;2.35;;;;;;;10.91;67.22;100878.09;5091858;28;20044;-51
2021/05/25 05:59:46;;;;;;;4.57;2.58;;;;;;;10.94;67.15;100883.81;5090188;28;20618;-51
2021/05/25 06:02:14;;;;;;;2.40;2.08;;;;;;;11.02;67.60;100877.88;5090798;28;20124;-52
2021/05/25 06:04:41;;;;;;;4.75;2.92;;;;;;;10.96;67.02;100881.66;5092764;28;20104;-52
2021/05/25 06:07:09;;;;;;;5.32;3.17;;;;;;;10.95;67.08;100880.03;5095025;28;20044;-51
2021/05/25 06:09:37;;;;;;;4.75;2.53;;;;;;;10.95;66.80;100880.03;5094514;28;20052;-55
2021/05/25 06:12:05;;;;;;;3.95;2.60;;;;;;;10.98;66.58;100882.19;5094079;28;20047;-52
2021/05/25 06:14:33;;;;;;;5.00;2.78;;;;;;;10.90;67.24;100881.94;5093134;28;20048;-51
2021/05/25 06:17:02;;;;;;;3.58;2.05;;;;;;;10.97;66.66;100877.84;4374920;28;10000769;-55
2021/05/25 06:19:29;;;;;;;4.22;3.00;;;;;;;11.00;66.72;100885.50;5093874;28;20048;-56
2021/05/25 06:21:57;;;;;;;5.68;2.63;;;;;;;10.97;66.89;100896.94;5093699;28;20047;-54
2021/05/25 06:24:25;;;;;;;5.03;3.20;;;;;;;10.95;66.81;100896.38;5091738;28;20517;-55
2021/05/25 06:26:52;;;;;;;6.35;3.25;;;;;;;10.87;66.33;100892.28;5092528;28;20040;-50
2021/05/25 06:29:20;;;;;;;8.55;3.20;;;;;;;10.84;66.41;100891.97;5092926;28;20074;-50
2021/05/25 06:31:47;;;;;;;5.72;2.72;;;;;;;10.85;66.80;100899.91;5091767;28;20082;-50
2021/05/25 06:34:15;;;;;;;5.05;3.40;;;;;;;10.88;66.42;100902.09;5092669;28;20055;-54
2021/05/25 06:36:43;;;;;;;3.75;2.78;;;;;;;10.84;66.27;100895.50;5092391;28;20441;-52
2021/05/25 06:39:10;;;;;;;6.63;3.65;;;;;;;10.96;66.78;100898.00;5091748;28;20510;-54
2021/05/25 06:41:38;;;;;;;6.43;3.20;;;;;;;10.99;66.17;100908.41;5079208;28;20048;-54
2021/05/25 06:44:06;;;;;;;5.88;3.88;;;;;;;10.97;65.70;100905.13;5090864;28;20040;-56
2021/05/25 06:46:33;;;;;;;6.40;3.42;;;;;;;10.93;66.04;100909.47;5092348;28;20443;-56
2021/05/25 06:49:01;;;;;;;8.57;3.88;;;;;;;10.95;66.18;100918.19;5093157;28;20040;-51
2021/05/25 06:51:29;;;;;;;7.05;4.00;;;;;;;10.95;66.40;100915.47;5094018;28;20068;-56
2021/05/25 06:53:56;;;;;;;6.78;4.35;;;;;;;10.98;66.73;100925.81;5093864;28;20084;-51
2021/05/25 06:56:24;;;;;;;5.93;3.70;;;;;;;10.95;66.77;100923.66;5094519;28;20089;-52
2021/05/25 06:58:52;;;;;;;5.82;3.65;;;;;;;10.97;66.59;100931.56;5094081;28;20116;-54
2021/05/25 07:01:19;;;;;;;4.70;3.40;;;;;;;10.98;66.82;100934.00;5094024;28;20062;-51
2021/05/25 07:03:47;;;;;;;5.68;3.20;;;;;;;11.01;66.55;100941.63;5093907;28;20048;-55
2021/05/25 07:06:15;;;;;;;4.15;2.90;;;;;;;11.07;66.90;100940.59;5093905;28;20036;-52
2021/05/25 07:08:42;;;;;;;5.25;2.78;;;;;;;11.09;66.74;100946.59;5093918;28;20093;-49
2021/05/25 07:11:11;;;;;;;3.95;2.60;;;;;;;11.09;66.71;100946.59;5089850;28;20048;-54
2021/05/25 07:13:38;;;;;;;5.78;3.05;;;;;;;11.07;66.92;100951.50;5081908;28;20157;-53
2021/05/25 07:16:06;;;;;;;6.18;3.08;;;;;;;11.14;67.14;100953.97;5093658;28;20048;-52
2021/05/25 07:18:39;;;;;;;4.72;2.97;;;;;;;11.15;67.02;100952.06;5093717;28;20079;-52
2021/05/25 07:21:07;;;;;;;8.23;3.30;;;;;;;11.15;66.96;100941.16;5093524;28;20098;-53
2021/05/25 07:23:35;;;;;;;8.50;3.15;;;;;;;11.17;67.50;100947.16;5092789;28;20052;-52
2021/05/25 07:26:03;;;;;;;9.18;3.70;;;;;;;11.21;67.18;100956.44;5093691;28;20507;-52
2021/05/25 07:28:31;;;;;;;7.35;3.20;;;;;;;11.26;67.24;100953.72;5093392;28;20063;-51
2021/05/25 07:30:59;;;;;;;5.68;2.90;;;;;;;11.28;67.22;100956.97;5093609;28;20048;-52
2021/05/25 07:33:27;;;;;;;6.00;2.85;;;;;;;11.22;67.06;100953.44;5093062;28;20036;-51
2021/05/25 07:35:55;;;;;;;5.40;2.75;;;;;;;11.29;67.31;100958.63;5092208;28;20048;-50
2021/05/25 07:38:22;;;;;;;5.60;2.97;;;;;;;11.30;67.32;100952.94;5093086;28;20044;-51
2021/05/25 07:40:50;;;;;;;9.70;3.40;;;;;;;11.36;67.71;100961.13;5092841;28;20448;-53
2021/05/25 07:43:18;;;;;;;6.70;2.90;;;;;;;11.36;66.79;100961.94;5092844;28;20052;-51
2021/05/25 07:45:46;;;;;;;5.03;2.60;;;;;;;11.40;67.38;100963.03;5092926;28;20044;-53
2021/05/25 07:48:14;;;;;;;14.27;5.10;;;;;;;11.59;67.55;100957.84;5093020;28;20444;-52
2021/05/25 07:50:42;;;;;;;4.47;2.50;;;;;;;11.64;66.99;100973.41;5065963;28;20048;-51
2021/05/25 07:53:10;;;;;;;7.47;2.70;;;;;;;11.68;65.92;100971.78;5068079;28;20131;-51
2021/05/25 07:55:37;;;;;;;5.53;2.50;;;;;;;11.59;66.77;100978.88;5071847;28;20036;-52
2021/05/25 07:58:05;;;;;;;6.05;2.50;;;;;;;11.50;67.16;100975.88;5072108;28;20514;-55
2021/05/25 08:00:33;;;;;;;4.95;2.30;;;;;;;11.49;67.62;100983.22;5072218;28;20079;-51
2021/05/25 08:03:01;;;;;;;6.10;2.78;;;;;;;11.48;67.81;100975.31;5071554;28;20041;-53
2021/05/25 08:05:31;;;;;;;7.78;2.58;;;;;;;11.55;68.47;100988.72;5077662;28;20049;-54
2021/05/25 08:08:02;;;;;;;10.00;2.92;;;;;;;11.63;68.18;100994.44;5071874;28;20518;-52
2021/05/25 08:10:31;;;;;;;9.18;2.90;;;;;;;11.65;67.35;100988.72;5084669;28;20055;-53
2021/05/25 08:12:59;;;;;;;7.95;2.58;;;;;;;11.58;67.71;100988.97;5091801;28;20424;-53
2021/05/25 08:15:29;;;;;;;7.57;2.95;;;;;;;11.61;68.05;100998.53;5092369;28;20073;-52
2021/05/25 08:20:33;;;;;;;7.10;2.83;;;;;;;11.70;67.96;101005.09;5086258;28;20059;-51
2021/05/25 08:23:21;;;;;;;7.50;2.88;;;;;;;11.82;67.50;101002.94;5092108;28;20075;-56
2021/05/25 08:25:48;;;;;;;6.65;2.90;;;;;;;11.72;67.63;101000.19;5092260;28;20048;-55
2021/05/25 08:28:16;;;;;;;11.13;3.45;;;;;;;11.67;69.01;101016.56;5090357;28;20077;-55
2021/05/25 08:30:44;;;;;;;14.98;3.60;;;;;;;11.64;70.74;101020.66;5082957;28;20109;-56
2021/05/25 08:33:15;;;;;;;8.18;2.97;;;;;;;11.56;70.94;101014.91;5071812;28;20071;-49
2021/05/25 08:35:45;;;;;;;9.27;3.30;;;;;;;11.57;70.20;101016.53;5058883;28;20071;-50
2021/05/25 08:38:15;;;;;;;5.93;2.90;;;;;;;11.56;70.06;101031.28;5072047;28;20044;-54
2021/05/25 08:40:44;;;;;;;6.15;2.55;;;;;;;11.52;70.46;101031.81;5075269;28;20047;-50
2021/05/25 08:43:12;;;;;;;13.65;4.50;;;;;;;11.61;69.24;101032.09;5091831;28;20043;-49
2021/05/25 08:45:40;;;;;;;6.82;2.92;;;;;;;11.61;69.08;101039.47;5091580;28;20494;-52
2021/05/25 08:48:08;;;;;;;9.20;3.72;;;;;;;11.71;69.09;101042.22;5092398;28;20110;-49
2021/05/25 08:50:59;;;;;;;7.82;2.67;;;;;;;11.77;68.68;101038.41;5082779;28;20043;-47
2021/05/25 08:53:27;;;;;;;6.10;2.65;;;;;;;11.70;68.70;101063.22;5091631;28;20040;-51
2021/05/25 08:55:56;;;;;;;4.05;2.30;;;;;;;11.58;69.36;101067.31;5091401;28;20044;-52
2021/05/25 08:58:25;;;;;;;5.05;2.20;;;;;;;11.44;69.47;101073.25;5092110;28;20042;-53
2021/05/25 09:00:55;;;;;;;4.40;1.88;;;;;;;11.21;67.45;101077.28;5091560;28;20047;-55
2021/05/25 09:03:23;;;;;;;5.18;1.80;;;;;;;10.92;67.91;101068.69;5091865;28;20082;-56
2021/05/25 09:05:58;;;;;;;8.60;2.40;;;;;;;10.86;69.53;101061.53;5091564;28;20053;-54
2021/05/25 09:08:25;;;;;;;7.35;2.28;;;;;;;10.89;70.64;101061.00;5091996;28;20047;-51
2021/05/25 09:10:59;;;;;;;7.57;2.55;;;;;;;11.03;70.85;101070.34;5090978;28;20048;-53
2021/05/25 09:13:26;;;;;;;7.35;2.10;;;;;;;11.15;70.83;101074.78;5091560;28;20044;-55
2021/05/25 09:15:56;;;;;;;5.47;2.15;;;;;;;11.22;71.28;101069.91;5091608;28;20097;-51
2021/05/25 09:18:43;;;;;;;4.53;2.17;;;;;;;11.28;71.34;101069.66;5091793;28;20052;-54
2021/05/25 09:21:13;;;;;;;6.40;2.58;;;;;;;11.32;71.89;101072.66;5077588;28;20438;-53
2021/05/25 09:23:43;;;;;;;9.60;3.33;;;;;;;11.38;72.02;101074.34;5090816;28;20056;-52
2021/05/25 09:26:28;;;;;;;7.55;2.97;;;;;;;11.40;72.70;101066.72;5091606;28;20051;-54
2021/05/25 09:29:05;;;;;;;6.43;3.13;;;;;;;11.38;72.86;101073.53;5091809;28;20044;-54
2021/05/25 09:31:43;;;;;;;8.30;2.80;;;;;;;11.38;73.08;101077.06;5091426;28;20424;-51
2021/05/25 09:34:21;;;;;;;8.95;2.90;;;;;;;11.47;73.10;101070.00;5090367;28;20044;-50
2021/05/25 09:37:11;;;;;;;7.50;3.00;;;;;;;11.51;73.26;101073.81;5091346;28;20032;-54
2021/05/25 09:39:41;;;;;;;5.70;2.60;;;;;;;11.55;73.85;101079.56;5092223;28;20036;-52
2021/05/25 09:42:12;;;;;;;10.18;3.10;;;;;;;11.55;72.83;101065.13;5088633;28;20406;-53
2021/05/25 09:44:58;;;;;;;6.40;2.90;;;;;;;11.59;73.83;101067.00;5072115;28;20126;-51
2021/05/25 09:47:40;;;;;;;11.05;3.78;;;;;;;11.68;74.32;101067.31;5075143;28;20094;-53
2021/05/25 09:50:13;;;;;;;7.38;3.00;;;;;;;11.70;74.15;101065.97;5074652;28;20033;-51
2021/05/25 09:53:00;;;;;;;10.88;4.22;;;;;;;11.68;73.91;101072.78;5074614;28;20037;-53
2021/05/25 09:55:28;;;;;;;9.02;3.50;;;;;;;11.67;74.19;101076.63;5074538;28;20052;-56
2021/05/25 09:57:58;;;;;;;8.77;3.40;;;;;;;11.70;74.40;101070.59;5075144;28;20055;-52
2021/05/25 10:00:33;;;;;;;13.32;3.83;;;;;;;11.76;75.15;101075.00;5075082;28;20079;-51
2021/05/25 10:03:19;;;;;;;8.27;3.33;;;;;;;11.79;73.72;101079.91;5083381;28;20402;-53
2021/05/25 10:05:55;;;;;;;13.27;3.70;;;;;;;11.83;73.87;101075.53;5074220;28;20228;-51
2021/05/25 10:08:24;;;;;;;12.93;4.45;;;;;;;11.92;73.62;101086.78;5074091;28;20040;-53
2021/05/25 10:10:55;;;;;;;12.02;3.95;;;;;;;11.87;71.55;101084.88;5074354;28;20089;-50
2021/05/25 10:13:24;;;;;;;11.55;4.35;;;;;;;11.86;71.81;101085.94;5073237;28;20049;-53
2021/05/25 10:15:53;;;;;;;9.07;3.63;;;;;;;11.89;71.73;101096.34;5074684;28;20094;-52
2021/05/25 10:21:10;;;;;;;11.70;3.80;;;;;;;12.01;68.71;101098.00;5074232;28;20067;-51
2021/05/25 10:23:41;;;;;;;14.07;4.07;;;;;;;12.11;68.59;101092.56;4721104;28;10000560;-51
2021/05/25 10:26:11;;;;;;;15.07;4.72;;;;;;;12.17;67.49;101096.09;5072249;28;20150;-54
2021/05/25 10:28:40;;;;;;;12.63;3.75;;;;;;;12.15;66.47;101094.47;5070959;28;20056;-52
2021/05/25 10:31:28;;;;;;;11.30;3.50;;;;;;;12.23;67.79;101101.31;5071068;28;20045;-50
2021/05/25 10:34:15;;;;;;;14.38;3.78;;;;;;;12.23;66.38;101101.31;5067375;28;20090;-53
2021/05/25 10:36:53;;;;;;;11.10;3.53;;;;;;;12.22;66.11;101109.75;5071006;28;20059;-53
2021/05/25 10:39:41;;;;;;;12.00;3.38;;;;;;;12.25;66.76;101104.59;5072033;28;20044;-53
2021/05/25 10:42:39;;;;;;;14.07;3.70;;;;;;;12.31;66.01;101103.50;5085583;28;20542;-54
2021/05/25 10:45:26;;;;;;;10.75;3.63;;;;;;;12.28;63.21;101095.84;5092009;28;20498;-51
2021/05/25 10:48:01;;;;;;;12.82;3.33;;;;;;;12.26;63.29;101106.22;5090746;28;20044;-52
2021/05/25 10:50:33;;;;;;;10.00;3.40;;;;;;;12.26;65.01;101121.78;5082344;28;20114;-50
2021/05/25 10:53:03;;;;;;;13.70;3.10;;;;;;;12.17;62.41;101110.59;5092028;28;20044;-53
2021/05/25 10:55:39;;;;;;;7.43;2.75;;;;;;;12.15;62.20;101110.03;5091722;28;20064;-52
2021/05/25 10:58:19;;;;;;;6.88;2.15;;;;;;;12.14;60.64;101111.94;5091853;28;20187;-53
2021/05/25 11:00:48;;;;;;;10.10;2.90;;;;;;;12.30;60.57;101112.78;5091298;28;20402;-50
2021/05/25 11:03:26;;;;;;;8.52;2.35;;;;;;;12.45;59.56;101113.88;5091579;28;20048;-53
2021/05/25 11:06:06;;;;;;;8.30;3.00;;;;;;;12.66;59.80;101109.22;5090922;28;20090;-50
2021/05/25 11:08:37;;;;;;;5.88;2.50;;;;;;;12.77;59.85;101117.16;5091721;28;20056;-51
2021/05/25 11:11:17;;;;;;;10.48;2.70;;;;;;;12.88;58.03;101117.13;5092204;28;20077;-52
2021/05/25 11:13:51;;;;;;;7.78;2.50;;;;;;;12.91;59.94;101116.56;5093208;28;20048;-53
2021/05/25 11:16:34;;;;;;;8.55;2.50;;;;;;;12.99;60.63;101126.97;5092312;28;20036;-54
2021/05/25 11:19:18;;;;;;;6.80;2.30;;;;;;;12.93;60.06;101148.00;5090380;28;20407;-55
2021/05/25 11:24:32;;;;;;;4.47;1.63;;;;;;;12.46;53.87;101142.84;5077304;28;20139;-55
2021/05/25 11:27:25;;;;;;;5.32;1.75;;;;;;;12.33;53.79;101131.34;5067393;28;20051;-54
2021/05/25 11:29:56;;;;;;;3.40;1.25;;;;;;;12.45;54.81;101135.75;5091011;28;20117;-56
2021/05/25 11:32:29;;;;;;;10.15;1.83;;;;;;;12.54;55.23;101128.66;5091419;28;20098;-55
2021/05/25 11:34:57;;;;;;;6.95;1.83;;;;;;;12.65;56.52;101137.66;5090708;28;20071;-54
2021/05/25 11:37:26;;;;;;;8.18;2.28;;;;;;;12.79;56.63;101142.31;5091291;28;20113;-53
2021/05/25 11:39:54;;;;;;;8.35;2.55;;;;;;;12.87;57.71;101137.34;5073059;28;20090;-54
2021/05/25 11:42:31;;;;;;;10.90;2.55;;;;;;;13.02;59.91;101129.13;5091106;28;20125;-55
2021/05/25 11:45:00;;;;;;;11.07;3.50;;;;;;;13.17;60.67;101136.47;5091060;28;20071;-54
2021/05/25 11:47:27;;;;;;;11.43;2.33;;;;;;;13.22;60.05;101144.66;5081088;28;20419;-56
2021/05/25 11:49:55;;;;;;;8.10;3.17;;;;;;;13.20;60.52;101142.22;5069491;28;20048;-52
2021/05/25 11:52:27;;;;;;;9.90;2.58;;;;;;;13.08;61.39;101158.09;5070486;28;20479;-51